createdAt,value
2023-01-17T06:27:57.086Z,1.80
2023-01-17T06:30:23.633Z,1.70
2023-01-17T06:32:53.822Z,1.90
2023-01-17T06:35:20.414Z,1.98
2023-01-17T06:37:49.840Z,1.55
2023-01-17T06:40:16.660Z,2.00
2023-01-17T06:42:43.658Z,2.22
2023-01-17T06:45:10.430Z,2.88
2023-01-17T06:47:40.245Z,2.20
2023-01-17T06:50:08.142Z,3.10
2023-01-17T06:52:34.885Z,3.60
2023-01-17T06:55:01.457Z,2.83
2023-01-17T06:57:27.978Z,2.80
2023-01-17T06:59:54.416Z,3.00
2023-01-17T07:02:20.919Z,4.13
2023-01-17T07:04:47.419Z,3.20
2023-01-17T07:07:13.895Z,2.10
2023-01-17T07:09:40.378Z,3.72
2023-01-17T07:12:06.961Z,4.47
2023-01-17T07:14:33.441Z,4.00
2023-01-17T07:16:59.943Z,3.00
2023-01-17T07:19:26.481Z,3.35
2023-01-17T07:21:53.831Z,2.50
2023-01-17T07:24:21.136Z,2.63
2023-01-17T07:26:48.511Z,2.03
2023-01-17T07:32:03.302Z,5.03
2023-01-17T07:34:29.824Z,3.45
2023-01-17T07:36:56.468Z,2.70
2023-01-17T07:39:23.016Z,4.15
2023-01-17T07:41:49.457Z,4.32
2023-01-17T07:44:16.262Z,3.72
2023-01-17T07:46:42.967Z,3.03
2023-01-17T07:49:09.511Z,2.88
2023-01-17T07:51:36.111Z,2.40
2023-01-17T07:54:02.660Z,2.63
2023-01-17T07:56:29.290Z,2.58
2023-01-17T07:58:55.767Z,2.65
2023-01-17T08:01:22.538Z,4.25
2023-01-17T08:03:50.612Z,3.47
2023-01-17T08:06:18.555Z,2.38
2023-01-17T08:08:45.224Z,2.40
2023-01-17T08:11:11.726Z,2.63
2023-01-17T08:13:38.214Z,2.22
2023-01-17T08:16:04.974Z,2.47
2023-01-17T08:18:31.607Z,2.00
2023-01-17T08:20:58.127Z,2.13
2023-01-17T08:23:25.409Z,2.25
2023-01-17T08:25:51.925Z,2.35
2023-01-17T08:28:19.717Z,1.98
2023-01-17T08:30:46.248Z,2.78
2023-01-17T08:33:12.764Z,2.65
2023-01-17T08:35:39.775Z,3.08
2023-01-17T08:38:06.253Z,3.22
2023-01-17T08:40:32.873Z,3.22
2023-01-17T08:43:00.282Z,3.25
2023-01-17T08:45:27.591Z,4.07
2023-01-17T08:47:54.156Z,3.22
2023-01-17T08:50:20.786Z,2.60
2023-01-17T08:52:50.975Z,3.20
2023-01-17T08:55:17.728Z,3.40
2023-01-17T08:57:44.214Z,4.38
2023-01-17T09:00:11.019Z,4.75
2023-01-17T09:02:37.511Z,5.13
2023-01-17T09:05:04.065Z,2.40
2023-01-17T09:07:30.582Z,3.20
2023-01-17T09:09:57.100Z,3.88
2023-01-17T09:12:23.964Z,2.65
2023-01-17T09:14:50.468Z,3.50
2023-01-17T09:17:17.076Z,2.40
2023-01-17T09:19:47.593Z,3.17
2023-01-17T09:22:14.716Z,1.90
2023-01-17T09:24:44.079Z,1.70
2023-01-17T09:27:10.706Z,2.00
2023-01-17T09:29:37.411Z,2.00
2023-01-17T09:32:04.103Z,2.08
2023-01-17T09:34:30.739Z,1.92
2023-01-17T09:36:57.517Z,2.13
2023-01-17T09:39:24.070Z,1.95
2023-01-17T09:41:56.375Z,1.80
2023-01-17T09:44:40.983Z,1.90
2023-01-17T09:47:30.170Z,1.77
2023-01-17T09:49:59.687Z,2.30
2023-01-17T09:52:29.325Z,2.83
2023-01-17T09:54:55.879Z,2.10
2023-01-17T09:57:40.089Z,3.85
2023-01-17T10:00:14.353Z,2.13
2023-01-17T10:02:43.742Z,2.47
2023-01-17T10:05:13.276Z,2.63
2023-01-17T10:07:45.324Z,2.78
2023-01-17T10:10:17.863Z,2.25
2023-01-17T10:12:44.565Z,3.00
2023-01-17T10:15:31.106Z,2.17
2023-01-17T10:17:57.843Z,2.33
2023-01-17T10:20:36.512Z,2.25
2023-01-17T10:23:06.023Z,2.65
2023-01-17T10:25:33.198Z,2.20
2023-01-17T10:28:12.479Z,2.60
2023-01-17T10:30:43.418Z,1.80
2023-01-17T10:33:14.799Z,1.80
2023-01-17T10:35:48.231Z,1.50
2023-01-17T10:38:15.548Z,1.17
2023-01-17T10:40:50.218Z,1.35
2023-01-17T10:43:16.679Z,1.40
2023-01-17T10:45:53.441Z,1.40
2023-01-17T10:48:26.078Z,1.52
2023-01-17T10:51:11.487Z,1.30
2023-01-17T10:53:44.141Z,1.30
2023-01-17T10:56:12.910Z,1.50
2023-01-17T10:58:39.521Z,1.58
2023-01-17T11:01:15.177Z,1.30
2023-01-17T11:03:45.444Z,1.58
2023-01-17T11:06:17.109Z,1.70
2023-01-17T11:08:51.197Z,2.05
2023-01-17T11:11:20.708Z,1.40
2023-01-17T11:13:48.819Z,1.35
2023-01-17T11:16:21.297Z,1.63
2023-01-17T11:18:48.831Z,1.40
2023-01-17T11:21:20.801Z,1.70
2023-01-17T11:23:49.190Z,1.60
2023-01-17T11:26:27.360Z,2.20
2023-01-17T11:29:13.072Z,1.73
2023-01-17T11:31:39.719Z,1.70
2023-01-17T11:34:13.627Z,1.58
2023-01-17T11:36:40.364Z,1.30
2023-01-17T11:39:18.943Z,1.60
2023-01-17T11:41:47.745Z,1.67
2023-01-17T11:44:20.295Z,1.40
2023-01-17T11:46:46.956Z,1.52
2023-01-17T11:49:23.988Z,1.50
2023-01-17T11:51:50.510Z,1.67
2023-01-17T11:54:19.382Z,1.45
2023-01-17T11:56:46.268Z,1.75
2023-01-17T11:59:15.974Z,1.50
2023-01-17T12:01:46.838Z,1.75
2023-01-17T12:04:20.751Z,1.80
2023-01-17T12:06:57.263Z,1.70
2023-01-17T12:09:24.374Z,1.65
2023-01-17T12:12:30.328Z,3.20
2023-01-17T12:14:59.862Z,1.73
2023-01-17T12:17:44.963Z,1.50
2023-01-17T12:20:24.745Z,1.92
2023-01-17T12:22:53.947Z,1.60
2023-01-17T12:25:39.601Z,1.50
2023-01-17T12:28:11.329Z,1.55
2023-01-17T12:30:40.875Z,1.38
2023-01-17T12:33:19.152Z,1.20
2023-01-17T12:35:52.790Z,1.63
2023-01-17T12:38:32.251Z,1.17
2023-01-17T12:41:15.206Z,1.45
2023-01-17T12:43:42.543Z,1.75
2023-01-17T12:46:14.763Z,1.80
2023-01-17T12:48:42.156Z,1.30
2023-01-17T12:51:13.987Z,1.48
2023-01-17T12:53:45.316Z,1.70
2023-01-17T12:56:12.149Z,2.28
2023-01-17T12:58:44.447Z,1.38
2023-01-17T13:01:28.705Z,1.00
2023-01-17T13:03:57.604Z,1.10
2023-01-17T13:06:27.945Z,1.20
2023-01-17T13:08:58.134Z,1.13
2023-01-17T13:11:30.306Z,2.05
2023-01-17T13:14:00.031Z,1.60
2023-01-17T13:16:30.831Z,7.35
2023-01-17T13:18:58.450Z,3.30
2023-01-17T13:21:24.885Z,1.50
2023-01-17T13:23:59.046Z,1.52
2023-01-17T13:26:36.527Z,1.23
2023-01-17T13:29:29.617Z,7.63
2023-01-17T13:32:08.441Z,1.60
2023-01-17T13:34:40.746Z,1.30
2023-01-17T13:37:25.014Z,1.70
2023-01-17T13:39:54.478Z,1.52
2023-01-17T13:42:41.742Z,1.38
2023-01-17T13:45:09.481Z,1.35
2023-01-17T13:47:38.792Z,1.70
2023-01-17T13:50:06.762Z,1.63
2023-01-17T13:52:33.785Z,1.63
2023-01-17T13:55:04.941Z,1.80
2023-01-17T13:57:46.154Z,1.90
2023-01-17T14:00:16.383Z,1.90
2023-01-17T14:02:43.648Z,2.20
2023-01-17T14:05:10.314Z,1.63
2023-01-17T14:07:54.858Z,1.90
2023-01-17T14:10:30.127Z,1.92
2023-01-17T14:12:56.686Z,1.60
2023-01-17T14:15:25.568Z,2.00
2023-01-17T14:17:56.501Z,1.70
2023-01-17T14:20:26.077Z,1.70
2023-01-17T14:23:00.303Z,2.30
2023-01-17T14:25:31.062Z,2.15
2023-01-17T14:28:01.761Z,2.13
2023-01-17T14:30:34.217Z,1.80
2023-01-17T14:33:01.113Z,1.70
2023-01-17T14:35:29.969Z,1.55
2023-01-17T14:38:03.265Z,1.52
2023-01-17T14:40:44.833Z,1.67
2023-01-17T14:43:32.884Z,1.90
2023-01-17T14:46:01.634Z,1.60
2023-01-17T14:48:28.713Z,1.70
2023-01-17T14:50:59.887Z,1.63
2023-01-17T14:53:27.967Z,2.00
2023-01-17T14:55:56.706Z,1.70
2023-01-17T14:58:29.493Z,1.50
2023-01-17T15:01:10.059Z,1.70
2023-01-17T15:03:48.613Z,1.90
2023-01-17T15:06:31.684Z,1.73
2023-01-17T15:09:14.141Z,1.45
2023-01-17T15:11:41.004Z,1.50
2023-01-17T15:14:18.541Z,1.63
2023-01-17T15:16:45.130Z,2.10
2023-01-17T15:19:13.519Z,1.80
2023-01-17T15:21:43.172Z,1.77
2023-01-17T15:24:21.826Z,1.80
2023-01-17T15:26:49.102Z,1.58
2023-01-17T15:29:23.887Z,2.25
2023-01-17T15:31:54.134Z,2.08
2023-01-17T15:34:31.205Z,2.97
2023-01-17T15:37:00.189Z,3.33
2023-01-17T15:39:30.432Z,3.72
2023-01-17T15:42:07.343Z,2.97
2023-01-17T15:44:50.296Z,3.03
2023-01-17T15:47:26.134Z,3.95
2023-01-17T15:49:52.656Z,2.83
2023-01-17T15:52:19.171Z,3.22
2023-01-17T15:54:55.810Z,3.83
2023-01-17T15:57:31.145Z,4.60
2023-01-17T16:00:05.981Z,4.85
2023-01-17T16:02:32.585Z,7.18
2023-01-17T16:05:00.122Z,9.43
2023-01-17T16:07:44.581Z,8.45
2023-01-17T16:10:15.566Z,6.68
2023-01-17T16:12:42.756Z,8.00
2023-01-17T16:15:13.519Z,10.02
2023-01-17T16:17:41.343Z,8.40
2023-01-17T16:20:19.766Z,7.43
2023-01-17T16:22:46.900Z,6.82
2023-01-17T16:25:17.395Z,5.38
2023-01-17T16:27:44.287Z,5.93
2023-01-17T16:30:12.159Z,6.15
2023-01-17T16:32:42.579Z,5.60
2023-01-17T16:35:19.017Z,5.68
2023-01-17T16:37:48.606Z,4.88
2023-01-17T16:40:15.584Z,4.47
2023-01-17T16:42:42.770Z,5.25
2023-01-17T16:45:10.360Z,4.82
2023-01-17T16:47:36.859Z,5.17
2023-01-17T16:50:03.574Z,5.38
2023-01-17T16:52:30.054Z,5.30
2023-01-17T16:54:56.581Z,5.75
2023-01-17T16:57:23.116Z,5.93
2023-01-17T16:59:50.783Z,7.03
2023-01-17T17:02:18.843Z,5.82
2023-01-17T17:04:45.439Z,6.75
2023-01-17T17:07:11.950Z,6.60
2023-01-17T17:09:38.432Z,6.70
2023-01-17T17:12:05.367Z,6.65
2023-01-17T17:14:31.879Z,9.48
2023-01-17T17:17:00.774Z,9.75
2023-01-17T17:19:28.298Z,10.57
2023-01-17T17:21:57.368Z,9.25
2023-01-17T17:24:23.872Z,8.40
2023-01-17T17:26:50.365Z,8.90
2023-01-17T17:29:16.953Z,9.43
2023-01-17T17:31:43.619Z,8.70
2023-01-17T17:34:11.435Z,8.55
2023-01-17T17:36:38.102Z,7.40
2023-01-17T17:39:06.482Z,6.40
2023-01-17T17:41:34.166Z,6.22
2023-01-17T17:44:01.096Z,5.33
2023-01-17T17:46:29.109Z,6.03
2023-01-17T17:48:56.275Z,5.70
2023-01-17T17:51:27.266Z,5.60
2023-01-17T17:53:54.754Z,5.38
2023-01-17T17:56:22.398Z,5.82
2023-01-17T17:58:49.201Z,6.53
2023-01-17T18:01:15.791Z,7.97
2023-01-17T18:03:42.556Z,8.38
2023-01-17T18:06:10.715Z,9.32
2023-01-17T18:08:38.040Z,8.00
2023-01-17T18:11:11.223Z,7.45
2023-01-17T18:13:38.764Z,7.50
2023-01-17T18:16:09.981Z,6.78
2023-01-17T18:18:37.742Z,7.25
2023-01-17T18:21:08.140Z,7.70
2023-01-17T18:23:34.822Z,7.78
2023-01-17T18:26:01.315Z,8.45
2023-01-17T18:28:27.816Z,7.63
2023-01-17T18:30:54.331Z,7.43
2023-01-17T18:33:20.821Z,6.38
2023-01-17T18:35:54.355Z,5.80
2023-01-17T18:38:20.920Z,6.22
2023-01-17T18:40:47.734Z,5.50
2023-01-17T18:43:14.215Z,5.25
2023-01-17T18:45:40.729Z,5.20
2023-01-17T18:48:07.243Z,5.40
2023-01-17T18:50:33.742Z,4.65
2023-01-17T18:53:00.236Z,5.10
2023-01-17T18:55:26.739Z,5.10
2023-01-17T18:57:53.534Z,5.03
2023-01-17T19:00:20.522Z,5.18
2023-01-17T19:02:48.950Z,4.63
2023-01-17T19:05:17.863Z,4.55
2023-01-17T19:07:44.370Z,4.70
2023-01-17T19:10:10.919Z,5.38
2023-01-17T19:12:37.433Z,5.30
2023-01-17T19:15:04.014Z,7.63
2023-01-17T19:17:30.429Z,5.18
2023-01-17T19:19:57.221Z,5.38
2023-01-17T19:22:23.767Z,5.45
2023-01-17T19:24:52.777Z,5.10
2023-01-17T19:27:19.235Z,5.13
2023-01-17T19:29:45.742Z,5.88
2023-01-17T19:32:12.265Z,5.60
2023-01-17T19:34:38.826Z,5.57
2023-01-17T19:37:06.052Z,6.05
2023-01-17T19:39:33.260Z,5.10
2023-01-17T19:41:59.771Z,4.90
2023-01-17T19:44:26.265Z,5.53
2023-01-17T19:46:52.783Z,4.65
2023-01-17T19:49:23.920Z,4.70
2023-01-17T19:51:51.200Z,5.47
2023-01-17T19:54:17.828Z,5.60
2023-01-17T19:56:44.269Z,5.32
2023-01-17T19:59:13.697Z,5.70
2023-01-17T20:01:40.468Z,5.70
2023-01-17T20:04:07.276Z,6.13
2023-01-17T20:06:35.629Z,6.03
2023-01-17T20:09:02.825Z,6.28
2023-01-17T20:11:29.361Z,6.72
2023-01-17T20:13:57.007Z,7.15
2023-01-17T20:16:24.480Z,6.20
2023-01-17T20:18:51.050Z,6.85
2023-01-17T20:21:18.987Z,6.55
2023-01-17T20:23:47.054Z,6.10
2023-01-17T20:26:14.506Z,7.28
2023-01-17T20:28:42.819Z,7.22
2023-01-17T20:31:12.763Z,6.95
2023-01-17T20:33:41.079Z,7.20
2023-01-17T20:36:10.850Z,6.22
2023-01-17T20:38:43.986Z,5.55
2023-01-17T20:41:15.170Z,5.30
2023-01-17T20:43:42.681Z,5.43
2023-01-17T20:46:09.808Z,4.90
2023-01-17T20:48:36.745Z,4.72
2023-01-17T20:51:07.088Z,5.20
2023-01-17T20:53:35.108Z,4.82
2023-01-17T20:56:01.825Z,6.13
2023-01-17T20:58:28.953Z,6.20
2023-01-17T21:00:56.273Z,5.75
2023-01-17T21:03:25.142Z,6.30
2023-01-17T21:05:51.844Z,5.10
2023-01-17T21:08:18.737Z,5.22
2023-01-17T21:10:49.089Z,4.72
2023-01-17T21:13:15.880Z,4.63
2023-01-17T21:15:49.891Z,4.70
2023-01-17T21:18:17.152Z,5.97
2023-01-17T21:20:44.809Z,5.68
2023-01-17T21:23:18.010Z,6.43
2023-01-17T21:25:44.872Z,7.53
2023-01-17T21:28:11.679Z,8.32
2023-01-17T21:30:38.306Z,8.07
2023-01-17T21:33:05.104Z,7.15
2023-01-17T21:35:31.801Z,7.70
2023-01-17T21:37:58.836Z,7.50
2023-01-17T21:40:25.823Z,8.55
2023-01-17T21:42:52.843Z,9.07
2023-01-17T21:45:19.510Z,7.78
2023-01-17T21:47:46.183Z,7.00
2023-01-17T21:50:22.133Z,7.88
2023-01-17T21:52:55.287Z,7.43
2023-01-17T21:55:40.688Z,7.60
2023-01-17T21:58:32.971Z,7.57
2023-01-17T22:01:08.991Z,7.85
2023-01-17T22:03:36.146Z,7.85
2023-01-17T22:06:04.341Z,7.63
2023-01-17T22:08:32.008Z,7.70
2023-01-17T22:11:02.222Z,6.43
2023-01-17T22:13:30.314Z,6.68
2023-01-17T22:15:58.568Z,6.25
2023-01-17T22:18:26.339Z,6.57
2023-01-17T22:20:52.918Z,7.20
2023-01-17T22:23:20.765Z,7.28
2023-01-17T22:25:47.326Z,7.63
2023-01-17T22:28:13.987Z,7.55
2023-01-17T22:30:40.463Z,8.35
2023-01-17T22:33:07.070Z,7.97
2023-01-17T22:35:33.685Z,8.45
2023-01-17T22:38:00.211Z,6.78
2023-01-17T22:40:27.809Z,7.28
2023-01-17T22:42:54.355Z,7.40
2023-01-17T22:45:20.835Z,7.60
